NCAR-RAP Real-Time Weather Data

Output produced by METARs form (24 April 2018  16:16 UTC)
found at http://weather.rap.ucar.edu/surface/
 
ROMY 241132Z 01009KT 8000 -SHRA SCT008 BKN015 FEW020CB BKN050 22/21 Q1010 RMK 3ST008 5CU015 1CB020 7SC050 A2983 CB 20KM SE MOV E
ROMY 241100Z 35011KT 6000 -TSRA SCT004 BKN012 FEW015CB BKN035 22/22 Q1009
ROMY 241027Z 30006KT 270V330 4000 TSRA FEW005 BKN012 FEW015CB BKN040 22/22 Q1009 RMK 2ST005 5CU012 2CB015 7SC040 A2982 FBL TS 5KM N MOV E
ROMY 241000Z 30005KT 260V010 2000 R22/0900VP1800D +TSRA FEW005 BKN010 SCT015CB BKN040 22/21 Q1009
ROMY 240938Z 32010KT 3000 +TSRA FEW005 BKN010 SCT015CB BKN040 22/21 Q1009 RMK 2ST005 5CU010 4CB015 7SC040 A2980 FBL TS 5KM W MOV E CB OHD MOV E
ROMY 240920Z 31006KT 210V360 8000 -TSRA FEW005 BKN010 SCT015CB BKN040 23/21 Q1008 RMK 2ST005 5CU010 3CB015 6SC040 A2979 FBL TS 20KM SW MOV E
ROMY 240900Z 21006KT 9000 -SHRA FEW004 BKN010 FEW015CB BKN040 25/24 Q1008
ROMY 240800Z 20009KT 9999 VCSH FEW004 SCT012 BKN050 25/24 Q1008
ROMY 240700Z 20014KT 9999 VCSH FEW006 SCT010 BKN080 26/25 Q1007
ROMY 240629Z 19011KT 9999 -SHRA FEW005 BKN010 FEW020TCU BKN050 26/25 Q1007 RMK 2ST005 5CU010 1TCU020 7SC050 A2976 TCU 15KM NE MOV NE
ROMY 240624Z 15012G25KT 9999 R22/0500VP1800U -SHRA FEW005 BKN010 FEW020TCU BKN050 25/24 Q1007 RMK 2ST005 5CU010 1TCU020 7SC050 A2976 TCU 8KM NE MOV NE
ROMY 240616Z 20016KT 2000 R22/0900VP1800D +SHRA BR FEW006 BKN010 FEW020TCU BKN050 25/23 Q1008 RMK 2ST006 6CU010 2TCU020 7SC050 A2978 TCU OHD MOV NE RI++
ROMY 240600Z 19014KT 9999 VCSH FEW007 BKN012 BKN050 27/24 Q1008
ROMY 240500Z 19016KT 9999 VCSH SCT009 BKN080 27/24 Q1008
ROMY 240400Z 18015KT 9999 FEW007 SCT009 BKN050 27/24 Q1009
ROMY 240300Z 19016KT 9999 FEW006 BKN008 BKN009 27/24 Q1010
ROMY 240200Z 19015KT 9999 SCT006 BKN007 BKN023 27/24 Q1010
ROMY 240100Z 19015KT 9999 FEW006 SCT007 BKN023 27/24 Q1010
ROMY 240000Z 17015KT 9999 FEW005 BKN006 BKN007 26/24 Q1010
ROMY 232300Z 18016KT 9999 FEW004 SCT005 BKN006 25/24 Q1010
ROMY 232200Z 17012KT 9000 FEW004 SCT005 BKN006 24/24 Q1009
ROMY 232130Z 17012KT 9000 FEW003 SCT005 BKN006 24/24 Q1009
ROMY 232102Z 18011KT 8000 FEW004 SCT005 BKN006 24/24 Q1009 RMK 1ST004 4ST005 7ST006 A2982
ROMY 231100Z 15010KT 9999 FEW004 BKN006 24/23 Q1011
ROMY 231000Z 16011KT 9999 FEW005 BKN007 25/24 Q1010
ROMY 230900Z 15013KT 9999 FEW006 BKN008 25/24 Q1010
ROMY 230836Z 16013KT 9999 FEW006 BKN009 26/24 Q1010 RMK 1ST006 5CU009 A2983
ROMY 230800Z 16013KT 9999 SCT008 BKN010 26/24 Q1010
ROMY 230720Z 16014KT 9999 FEW007 SCT009 BKN011 27/23 Q1010 RMK 1ST007 3CU009 5CU011 A2984
ROMY 230700Z 16015KT 9999 FEW007 BKN009 27/23 Q1010
ROMY 230600Z 15014KT 9999 FEW007 SCT009 BKN011 27/24 Q1010
ROMY 230500Z 15016KT 9999 FEW008 BKN010 27/24 Q1011
ROMY 230400Z 15016KT 9999 BKN010 27/23 Q1011
ROMY 230300Z 15017KT 9999 SCT010 SCT016 27/23 Q1012
ROMY 230200Z 14015KT 9999 FEW008 SCT010 BKN016 27/23 Q1012
ROMY 230100Z 16011KT 9999 VCSH FEW007 BKN010 26/23 Q1013
ROMY 230042Z 17012KT 9999 VCSH FEW007 SCT009 BKN010 25/23 Q1013 RMK 1ST007 4CU009 6CU010 A2993
ROMY 230000Z 15011KT 9999 FEW006 SCT007 BKN008 25/23 Q1013
ROMY 222300Z 13011KT 9999 FEW005 SCT006 BKN007 24/23 Q1012
ROMY 222200Z 12009KT 9999 FEW005 SCT006 BKN007 24/23 Q1012
ROMY 222130Z 12007KT 9999 FEW005 SCT008 23/23 Q1012
ROMY 221100Z 13010KT 9999 FEW007 SCT015 BKN070 24/23 Q1012
ROMY 221039Z 13010KT 9999 FEW006 SCT007 BKN017 24/23 Q1012 RMK 1ST006 3ST007 5CU017 A2991
ROMY 221000Z 13010KT 9999 FEW006 SCT007 BKN008 24/23 Q1012
ROMY 220900Z 13012KT 9999 FEW006 BKN008 BKN023 25/23 Q1012
ROMY 220800Z 14011KT 9999 FEW006 SCT007 BKN009 25/23 Q1012
ROMY 220700Z 14012KT 9999 FEW007 SCT008 BKN010 26/23 Q1012
ROMY 220600Z 16012KT 9999 FEW007 BKN009 BKN015 26/23 Q1013
ROMY 220500Z 15014KT 9999 FEW007 SCT008 BKN010 26/23 Q1012
ROMY 220444Z 14014KT 9999 FEW007 SCT008 BKN010 26/23 Q1013 RMK 1ST007 3ST008 6CU010 A2992